sensor_id;sensor_type;location;lat;lon;timestamp;P1;durP1;ratioP1;P2;durP2;ratioP2
74935;SDS011;63501;55.570;37.488;2023-04-25T00:00:09;12.02;;;4.65;;
74935;SDS011;63501;55.570;37.488;2023-04-25T00:02:37;11.10;;;4.20;;
74935;SDS011;63501;55.570;37.488;2023-04-25T00:05:04;7.22;;;4.25;;
74935;SDS011;63501;55.570;37.488;2023-04-25T00:07:32;9.85;;;4.15;;
74935;SDS011;63501;55.570;37.488;2023-04-25T00:10:00;8.90;;;4.53;;
74935;SDS011;63501;55.570;37.488;2023-04-25T00:12:28;9.27;;;4.18;;
74935;SDS011;63501;55.570;37.488;2023-04-25T00:14:57;16.92;;;4.90;;
74935;SDS011;63501;55.570;37.488;2023-04-25T00:17:25;10.27;;;4.55;;
74935;SDS011;63501;55.570;37.488;2023-04-25T00:19:53;6.90;;;4.28;;
74935;SDS011;63501;55.570;37.488;2023-04-25T00:22:21;10.55;;;4.70;;
74935;SDS011;63501;55.570;37.488;2023-04-25T00:24:48;10.10;;;4.35;;
74935;SDS011;63501;55.570;37.488;2023-04-25T00:27:15;7.18;;;4.28;;
74935;SDS011;63501;55.570;37.488;2023-04-25T00:29:42;7.60;;;4.63;;
74935;SDS011;63501;55.570;37.488;2023-04-25T00:32:11;8.38;;;4.70;;
74935;SDS011;63501;55.570;37.488;2023-04-25T00:34:38;9.32;;;5.20;;
74935;SDS011;63501;55.570;37.488;2023-04-25T00:37:05;12.80;;;5.47;;
74935;SDS011;63501;55.570;37.488;2023-04-25T00:39:35;9.38;;;4.50;;
74935;SDS011;63501;55.570;37.488;2023-04-25T00:42:03;12.02;;;5.22;;
74935;SDS011;63501;55.570;37.488;2023-04-25T00:44:31;8.60;;;5.03;;
74935;SDS011;63501;55.570;37.488;2023-04-25T00:46:58;7.25;;;4.55;;
74935;SDS011;63501;55.570;37.488;2023-04-25T00:49:30;7.57;;;4.50;;
74935;SDS011;63501;55.570;37.488;2023-04-25T00:51:58;7.90;;;4.47;;
74935;SDS011;63501;55.570;37.488;2023-04-25T00:54:26;9.10;;;4.38;;
74935;SDS011;63501;55.570;37.488;2023-04-25T00:56:53;12.93;;;4.55;;
74935;SDS011;63501;55.570;37.488;2023-04-25T00:59:20;9.07;;;4.60;;
74935;SDS011;63501;55.570;37.488;2023-04-25T01:01:47;8.15;;;4.68;;
74935;SDS011;63501;55.570;37.488;2023-04-25T01:04:17;6.20;;;4.20;;
74935;SDS011;63501;55.570;37.488;2023-04-25T01:06:45;9.88;;;4.43;;
74935;SDS011;63501;55.570;37.488;2023-04-25T01:09:14;11.30;;;4.70;;
74935;SDS011;63501;55.570;37.488;2023-04-25T01:11:44;9.57;;;4.28;;
74935;SDS011;63501;55.570;37.488;2023-04-25T01:14:12;9.15;;;4.28;;
74935;SDS011;63501;55.570;37.488;2023-04-25T01:16:39;10.57;;;5.88;;
74935;SDS011;63501;55.570;37.488;2023-04-25T01:19:07;7.55;;;4.53;;
74935;SDS011;63501;55.570;37.488;2023-04-25T01:21:39;8.68;;;4.53;;
74935;SDS011;63501;55.570;37.488;2023-04-25T01:24:07;5.75;;;4.22;;
74935;SDS011;63501;55.570;37.488;2023-04-25T01:26:36;10.45;;;4.75;;
74935;SDS011;63501;55.570;37.488;2023-04-25T01:29:05;9.98;;;4.70;;
74935;SDS011;63501;55.570;37.488;2023-04-25T01:31:34;12.77;;;4.93;;
74935;SDS011;63501;55.570;37.488;2023-04-25T01:34:03;11.45;;;4.50;;
74935;SDS011;63501;55.570;37.488;2023-04-25T01:36:31;10.52;;;4.45;;
74935;SDS011;63501;55.570;37.488;2023-04-25T01:39:01;10.63;;;4.63;;
74935;SDS011;63501;55.570;37.488;2023-04-25T01:41:32;13.18;;;5.95;;
74935;SDS011;63501;55.570;37.488;2023-04-25T01:44:00;8.57;;;4.35;;
74935;SDS011;63501;55.570;37.488;2023-04-25T01:46:28;13.73;;;4.85;;
74935;SDS011;63501;55.570;37.488;2023-04-25T01:51:26;10.02;;;4.43;;
74935;SDS011;63501;55.570;37.488;2023-04-25T01:53:55;11.15;;;4.35;;
74935;SDS011;63501;55.570;37.488;2023-04-25T01:56:25;8.05;;;4.38;;
74935;SDS011;63501;55.570;37.488;2023-04-25T01:58:56;9.93;;;4.88;;
74935;SDS011;63501;55.570;37.488;2023-04-25T02:01:26;7.85;;;4.03;;
74935;SDS011;63501;55.570;37.488;2023-04-25T02:03:54;9.63;;;4.25;;
74935;SDS011;63501;55.570;37.488;2023-04-25T02:06:21;11.15;;;4.20;;
74935;SDS011;63501;55.570;37.488;2023-04-25T02:08:52;5.50;;;3.63;;
74935;SDS011;63501;55.570;37.488;2023-04-25T02:11:19;7.25;;;4.05;;
74935;SDS011;63501;55.570;37.488;2023-04-25T02:13:48;9.25;;;4.43;;
74935;SDS011;63501;55.570;37.488;2023-04-25T02:16:18;14.90;;;5.00;;
74935;SDS011;63501;55.570;37.488;2023-04-25T02:18:46;8.57;;;4.90;;
74935;SDS011;63501;55.570;37.488;2023-04-25T02:21:13;8.77;;;4.93;;
74935;SDS011;63501;55.570;37.488;2023-04-25T02:23:40;10.23;;;4.93;;
74935;SDS011;63501;55.570;37.488;2023-04-25T02:26:08;11.85;;;5.78;;
74935;SDS011;63501;55.570;37.488;2023-04-25T02:28:36;12.90;;;6.00;;
74935;SDS011;63501;55.570;37.488;2023-04-25T02:31:05;10.98;;;6.20;;
74935;SDS011;63501;55.570;37.488;2023-04-25T02:33:32;12.90;;;7.25;;
74935;SDS011;63501;55.570;37.488;2023-04-25T02:36:00;9.60;;;6.82;;
74935;SDS011;63501;55.570;37.488;2023-04-25T02:38:28;15.65;;;7.22;;
74935;SDS011;63501;55.570;37.488;2023-04-25T02:40:55;10.82;;;6.20;;
74935;SDS011;63501;55.570;37.488;2023-04-25T02:43:22;13.20;;;6.95;;
74935;SDS011;63501;55.570;37.488;2023-04-25T02:45:49;11.73;;;6.80;;
74935;SDS011;63501;55.570;37.488;2023-04-25T02:48:18;10.40;;;6.55;;
74935;SDS011;63501;55.570;37.488;2023-04-25T02:50:45;12.70;;;6.95;;
74935;SDS011;63501;55.570;37.488;2023-04-25T02:53:12;15.90;;;7.13;;
74935;SDS011;63501;55.570;37.488;2023-04-25T02:55:40;16.52;;;7.00;;
74935;SDS011;63501;55.570;37.488;2023-04-25T02:58:07;14.90;;;7.15;;
74935;SDS011;63501;55.570;37.488;2023-04-25T03:00:35;14.45;;;6.65;;
74935;SDS011;63501;55.570;37.488;2023-04-25T03:03:02;13.23;;;7.13;;
74935;SDS011;63501;55.570;37.488;2023-04-25T03:05:32;16.05;;;7.15;;
74935;SDS011;63501;55.570;37.488;2023-04-25T03:08:01;14.35;;;7.05;;
74935;SDS011;63501;55.570;37.488;2023-04-25T03:10:31;14.23;;;6.57;;
74935;SDS011;63501;55.570;37.488;2023-04-25T03:12:59;14.00;;;7.40;;
74935;SDS011;63501;55.570;37.488;2023-04-25T03:15:26;12.43;;;6.95;;
74935;SDS011;63501;55.570;37.488;2023-04-25T03:17:53;16.38;;;6.97;;
74935;SDS011;63501;55.570;37.488;2023-04-25T03:20:20;12.82;;;6.93;;
74935;SDS011;63501;55.570;37.488;2023-04-25T03:22:51;11.35;;;7.00;;
74935;SDS011;63501;55.570;37.488;2023-04-25T03:25:18;12.73;;;6.97;;
74935;SDS011;63501;55.570;37.488;2023-04-25T03:27:47;15.73;;;7.20;;
74935;SDS011;63501;55.570;37.488;2023-04-25T03:30:14;13.15;;;6.90;;
74935;SDS011;63501;55.570;37.488;2023-04-25T03:32:44;12.73;;;7.25;;
74935;SDS011;63501;55.570;37.488;2023-04-25T03:35:12;12.90;;;6.97;;
74935;SDS011;63501;55.570;37.488;2023-04-25T03:37:46;17.67;;;7.30;;
74935;SDS011;63501;55.570;37.488;2023-04-25T03:40:15;13.43;;;8.23;;
74935;SDS011;63501;55.570;37.488;2023-04-25T03:42:45;13.82;;;7.15;;
74935;SDS011;63501;55.570;37.488;2023-04-25T03:45:16;13.43;;;6.55;;
74935;SDS011;63501;55.570;37.488;2023-04-25T03:47:43;14.50;;;6.50;;
74935;SDS011;63501;55.570;37.488;2023-04-25T03:50:12;14.65;;;6.60;;
74935;SDS011;63501;55.570;37.488;2023-04-25T03:52:41;12.85;;;6.68;;
74935;SDS011;63501;55.570;37.488;2023-04-25T03:55:08;11.60;;;7.03;;
74935;SDS011;63501;55.570;37.488;2023-04-25T03:57:40;11.25;;;6.32;;
74935;SDS011;63501;55.570;37.488;2023-04-25T04:00:07;14.18;;;7.22;;
74935;SDS011;63501;55.570;37.488;2023-04-25T04:05:04;11.77;;;6.18;;
74935;SDS011;63501;55.570;37.488;2023-04-25T04:07:33;10.25;;;6.03;;
74935;SDS011;63501;55.570;37.488;2023-04-25T04:10:05;11.43;;;6.35;;
74935;SDS011;63501;55.570;37.488;2023-04-25T04:15:01;12.98;;;6.03;;
74935;SDS011;63501;55.570;37.488;2023-04-25T04:17:29;10.18;;;5.85;;
74935;SDS011;63501;55.570;37.488;2023-04-25T04:20:00;9.55;;;5.97;;
74935;SDS011;63501;55.570;37.488;2023-04-25T04:22:28;14.48;;;6.60;;
74935;SDS011;63501;55.570;37.488;2023-04-25T04:24:55;13.75;;;7.10;;
74935;SDS011;63501;55.570;37.488;2023-04-25T04:27:23;11.07;;;6.53;;
74935;SDS011;63501;55.570;37.488;2023-04-25T04:29:50;10.68;;;6.35;;
74935;SDS011;63501;55.570;37.488;2023-04-25T04:32:19;17.90;;;6.72;;
74935;SDS011;63501;55.570;37.488;2023-04-25T04:34:48;13.20;;;5.80;;
74935;SDS011;63501;55.570;37.488;2023-04-25T04:37:16;13.40;;;6.05;;
74935;SDS011;63501;55.570;37.488;2023-04-25T04:39:45;13.57;;;6.00;;
74935;SDS011;63501;55.570;37.488;2023-04-25T04:42:13;11.63;;;5.88;;
74935;SDS011;63501;55.570;37.488;2023-04-25T04:44:41;10.80;;;6.00;;
74935;SDS011;63501;55.570;37.488;2023-04-25T04:47:09;11.35;;;5.57;;
74935;SDS011;63501;55.570;37.488;2023-04-25T04:52:09;13.77;;;6.60;;
74935;SDS011;63501;55.570;37.488;2023-04-25T04:54:39;12.95;;;5.68;;
74935;SDS011;63501;55.570;37.488;2023-04-25T04:57:06;11.02;;;6.18;;
74935;SDS011;63501;55.570;37.488;2023-04-25T04:59:36;18.17;;;7.07;;
74935;SDS011;63501;55.570;37.488;2023-04-25T05:02:05;12.70;;;6.68;;
74935;SDS011;63501;55.570;37.488;2023-04-25T05:04:32;13.38;;;7.05;;
74935;SDS011;63501;55.570;37.488;2023-04-25T05:07:01;18.33;;;7.18;;
74935;SDS011;63501;55.570;37.488;2023-04-25T05:09:28;19.05;;;7.20;;
74935;SDS011;63501;55.570;37.488;2023-04-25T05:11:58;15.60;;;7.30;;
74935;SDS011;63501;55.570;37.488;2023-04-25T05:16:53;18.77;;;7.95;;
74935;SDS011;63501;55.570;37.488;2023-04-25T05:19:20;15.57;;;7.63;;
74935;SDS011;63501;55.570;37.488;2023-04-25T05:21:48;12.40;;;7.03;;
74935;SDS011;63501;55.570;37.488;2023-04-25T05:24:17;13.57;;;6.43;;
74935;SDS011;63501;55.570;37.488;2023-04-25T05:26:47;11.75;;;7.18;;
74935;SDS011;63501;55.570;37.488;2023-04-25T05:29:15;15.80;;;7.18;;
74935;SDS011;63501;55.570;37.488;2023-04-25T05:31:42;11.68;;;6.53;;
74935;SDS011;63501;55.570;37.488;2023-04-25T05:34:10;14.50;;;7.78;;
74935;SDS011;63501;55.570;37.488;2023-04-25T05:36:37;13.95;;;6.97;;
74935;SDS011;63501;55.570;37.488;2023-04-25T05:39:05;19.77;;;7.20;;
74935;SDS011;63501;55.570;37.488;2023-04-25T05:41:34;17.45;;;7.40;;
74935;SDS011;63501;55.570;37.488;2023-04-25T05:44:06;15.10;;;6.35;;
74935;SDS011;63501;55.570;37.488;2023-04-25T05:46:37;13.55;;;7.00;;
74935;SDS011;63501;55.570;37.488;2023-04-25T05:49:04;15.45;;;6.10;;
74935;SDS011;63501;55.570;37.488;2023-04-25T05:51:33;14.90;;;6.35;;
74935;SDS011;63501;55.570;37.488;2023-04-25T05:54:00;12.82;;;5.97;;
74935;SDS011;63501;55.570;37.488;2023-04-25T05:56:27;13.63;;;5.93;;
74935;SDS011;63501;55.570;37.488;2023-04-25T05:58:56;12.88;;;6.45;;
74935;SDS011;63501;55.570;37.488;2023-04-25T06:01:24;15.82;;;6.45;;
74935;SDS011;63501;55.570;37.488;2023-04-25T06:03:53;9.00;;;5.38;;
74935;SDS011;63501;55.570;37.488;2023-04-25T06:06:20;9.02;;;5.82;;
74935;SDS011;63501;55.570;37.488;2023-04-25T06:08:49;13.68;;;6.45;;
74935;SDS011;63501;55.570;37.488;2023-04-25T06:11:16;12.00;;;5.78;;
74935;SDS011;63501;55.570;37.488;2023-04-25T06:13:44;12.75;;;5.57;;
74935;SDS011;63501;55.570;37.488;2023-04-25T06:16:16;11.73;;;5.60;;
74935;SDS011;63501;55.570;37.488;2023-04-25T06:18:44;10.43;;;5.18;;
74935;SDS011;63501;55.570;37.488;2023-04-25T06:21:14;8.07;;;4.90;;
74935;SDS011;63501;55.570;37.488;2023-04-25T06:26:09;11.65;;;4.97;;
74935;SDS011;63501;55.570;37.488;2023-04-25T06:28:36;12.00;;;5.57;;
74935;SDS011;63501;55.570;37.488;2023-04-25T06:31:03;11.88;;;5.40;;
74935;SDS011;63501;55.570;37.488;2023-04-25T06:33:32;6.93;;;4.50;;
74935;SDS011;63501;55.570;37.488;2023-04-25T06:36:02;9.57;;;4.63;;
74935;SDS011;63501;55.570;37.488;2023-04-25T06:38:29;8.10;;;4.50;;
74935;SDS011;63501;55.570;37.488;2023-04-25T06:40:56;5.20;;;3.47;;
74935;SDS011;63501;55.570;37.488;2023-04-25T06:43:23;5.43;;;3.50;;
74935;SDS011;63501;55.570;37.488;2023-04-25T06:45:51;14.02;;;4.70;;
74935;SDS011;63501;55.570;37.488;2023-04-25T06:48:19;6.22;;;3.65;;
74935;SDS011;63501;55.570;37.488;2023-04-25T06:50:51;7.03;;;3.80;;
74935;SDS011;63501;55.570;37.488;2023-04-25T06:53:18;4.43;;;3.10;;
74935;SDS011;63501;55.570;37.488;2023-04-25T06:55:48;8.50;;;3.00;;
74935;SDS011;63501;55.570;37.488;2023-04-25T06:58:15;5.13;;;3.40;;
74935;SDS011;63501;55.570;37.488;2023-04-25T07:00:42;5.38;;;3.13;;
74935;SDS011;63501;55.570;37.488;2023-04-25T07:03:09;8.82;;;3.78;;
74935;SDS011;63501;55.570;37.488;2023-04-25T07:05:36;7.57;;;3.30;;
74935;SDS011;63501;55.570;37.488;2023-04-25T07:08:04;6.65;;;3.17;;
74935;SDS011;63501;55.570;37.488;2023-04-25T07:10:32;11.38;;;3.70;;
74935;SDS011;63501;55.570;37.488;2023-04-25T07:13:01;6.60;;;2.85;;
74935;SDS011;63501;55.570;37.488;2023-04-25T07:15:29;7.10;;;2.72;;
74935;SDS011;63501;55.570;37.488;2023-04-25T07:17:56;9.18;;;3.40;;
74935;SDS011;63501;55.570;37.488;2023-04-25T07:20:23;5.50;;;2.88;;
74935;SDS011;63501;55.570;37.488;2023-04-25T07:22:52;4.68;;;2.95;;
74935;SDS011;63501;55.570;37.488;2023-04-25T07:25:21;6.65;;;3.10;;
74935;SDS011;63501;55.570;37.488;2023-04-25T07:27:48;7.22;;;3.00;;
74935;SDS011;63501;55.570;37.488;2023-04-25T07:30:15;6.78;;;3.03;;
74935;SDS011;63501;55.570;37.488;2023-04-25T07:32:43;4.63;;;2.90;;
74935;SDS011;63501;55.570;37.488;2023-04-25T07:35:10;6.43;;;3.38;;
74935;SDS011;63501;55.570;37.488;2023-04-25T07:37:39;7.97;;;3.58;;
74935;SDS011;63501;55.570;37.488;2023-04-25T07:40:06;6.15;;;2.97;;
74935;SDS011;63501;55.570;37.488;2023-04-25T07:42:36;10.73;;;3.70;;
74935;SDS011;63501;55.570;37.488;2023-04-25T07:45:06;10.50;;;3.85;;
74935;SDS011;63501;55.570;37.488;2023-04-25T07:47:34;7.38;;;4.15;;
74935;SDS011;63501;55.570;37.488;2023-04-25T07:50:02;12.13;;;4.13;;
74935;SDS011;63501;55.570;37.488;2023-04-25T07:52:29;5.60;;;3.53;;
74935;SDS011;63501;55.570;37.488;2023-04-25T07:54:57;6.15;;;3.33;;
74935;SDS011;63501;55.570;37.488;2023-04-25T07:57:24;7.03;;;3.00;;
74935;SDS011;63501;55.570;37.488;2023-04-25T07:59:52;5.32;;;2.97;;
74935;SDS011;63501;55.570;37.488;2023-04-25T08:02:19;4.28;;;2.83;;
74935;SDS011;63501;55.570;37.488;2023-04-25T08:04:47;8.27;;;2.58;;
74935;SDS011;63501;55.570;37.488;2023-04-25T08:07:14;9.63;;;3.17;;
74935;SDS011;63501;55.570;37.488;2023-04-25T08:09:43;13.80;;;3.40;;
74935;SDS011;63501;55.570;37.488;2023-04-25T08:12:10;6.22;;;2.70;;
74935;SDS011;63501;55.570;37.488;2023-04-25T08:14:37;8.55;;;3.38;;
74935;SDS011;63501;55.570;37.488;2023-04-25T08:17:06;5.30;;;2.58;;
74935;SDS011;63501;55.570;37.488;2023-04-25T08:19:34;5.47;;;2.70;;
74935;SDS011;63501;55.570;37.488;2023-04-25T08:22:01;6.95;;;2.80;;
74935;SDS011;63501;55.570;37.488;2023-04-25T08:24:28;3.90;;;2.63;;
74935;SDS011;63501;55.570;37.488;2023-04-25T08:26:56;10.20;;;2.95;;
74935;SDS011;63501;55.570;37.488;2023-04-25T08:29:25;6.72;;;2.40;;
74935;SDS011;63501;55.570;37.488;2023-04-25T08:31:53;4.75;;;2.88;;
74935;SDS011;63501;55.570;37.488;2023-04-25T08:34:22;7.80;;;2.97;;
74935;SDS011;63501;55.570;37.488;2023-04-25T08:36:51;5.20;;;2.42;;
74935;SDS011;63501;55.570;37.488;2023-04-25T08:39:18;4.40;;;2.65;;
74935;SDS011;63501;55.570;37.488;2023-04-25T08:44:13;9.25;;;2.55;;
74935;SDS011;63501;55.570;37.488;2023-04-25T08:46:41;7.32;;;2.65;;
74935;SDS011;63501;55.570;37.488;2023-04-25T08:49:08;5.90;;;2.40;;
74935;SDS011;63501;55.570;37.488;2023-04-25T08:51:39;2.55;;;2.00;;
74935;SDS011;63501;55.570;37.488;2023-04-25T08:54:13;5.20;;;2.40;;
74935;SDS011;63501;55.570;37.488;2023-04-25T08:56:43;6.45;;;2.40;;
74935;SDS011;63501;55.570;37.488;2023-04-25T08:59:14;3.80;;;2.78;;
74935;SDS011;63501;55.570;37.488;2023-04-25T09:01:41;4.68;;;2.88;;
74935;SDS011;63501;55.570;37.488;2023-04-25T09:04:11;7.88;;;2.92;;
74935;SDS011;63501;55.570;37.488;2023-04-25T09:06:40;5.22;;;2.25;;
74935;SDS011;63501;55.570;37.488;2023-04-25T09:09:08;4.82;;;2.50;;
74935;SDS011;63501;55.570;37.488;2023-04-25T09:11:39;3.42;;;2.25;;
74935;SDS011;63501;55.570;37.488;2023-04-25T09:14:11;4.70;;;2.25;;
74935;SDS011;63501;55.570;37.488;2023-04-25T09:19:25;4.10;;;2.00;;
74935;SDS011;63501;55.570;37.488;2023-04-25T09:21:56;4.70;;;2.10;;
74935;SDS011;63501;55.570;37.488;2023-04-25T09:24:32;2.58;;;2.10;;
74935;SDS011;63501;55.570;37.488;2023-04-25T09:27:03;3.53;;;2.67;;
74935;SDS011;63501;55.570;37.488;2023-04-25T09:29:32;2.67;;;2.35;;
74935;SDS011;63501;55.570;37.488;2023-04-25T09:32:18;4.13;;;2.25;;
74935;SDS011;63501;55.570;37.488;2023-04-25T09:34:55;3.85;;;2.30;;
74935;SDS011;63501;55.570;37.488;2023-04-25T09:37:30;7.70;;;2.10;;
74935;SDS011;63501;55.570;37.488;2023-04-25T09:39:59;3.50;;;2.13;;
74935;SDS011;63501;55.570;37.488;2023-04-25T09:42:30;3.22;;;2.20;;
74935;SDS011;63501;55.570;37.488;2023-04-25T09:45:00;24.73;;;3.72;;
74935;SDS011;63501;55.570;37.488;2023-04-25T09:47:31;9.15;;;2.33;;
74935;SDS011;63501;55.570;37.488;2023-04-25T09:50:02;2.92;;;2.03;;
74935;SDS011;63501;55.570;37.488;2023-04-25T09:52:32;4.88;;;2.20;;
74935;SDS011;63501;55.570;37.488;2023-04-25T09:55:03;4.50;;;2.75;;
74935;SDS011;63501;55.570;37.488;2023-04-25T09:57:45;3.00;;;1.80;;
74935;SDS011;63501;55.570;37.488;2023-04-25T10:00:16;4.07;;;1.73;;
74935;SDS011;63501;55.570;37.488;2023-04-25T10:02:46;3.22;;;2.00;;
74935;SDS011;63501;55.570;37.488;2023-04-25T10:05:15;3.70;;;2.00;;
74935;SDS011;63501;55.570;37.488;2023-04-25T10:07:44;2.50;;;1.85;;
74935;SDS011;63501;55.570;37.488;2023-04-25T10:10:12;3.92;;;2.10;;
74935;SDS011;63501;55.570;37.488;2023-04-25T10:12:40;3.22;;;2.05;;
74935;SDS011;63501;55.570;37.488;2023-04-25T10:15:14;5.05;;;2.10;;
74935;SDS011;63501;55.570;37.488;2023-04-25T10:17:41;4.97;;;2.10;;
74935;SDS011;63501;55.570;37.488;2023-04-25T10:20:10;3.50;;;2.10;;
74935;SDS011;63501;55.570;37.488;2023-04-25T10:22:41;2.03;;;1.70;;
74935;SDS011;63501;55.570;37.488;2023-04-25T10:25:26;2.30;;;1.80;;
74935;SDS011;63501;55.570;37.488;2023-04-25T10:27:53;2.75;;;1.70;;
74935;SDS011;63501;55.570;37.488;2023-04-25T10:30:23;3.97;;;2.00;;
74935;SDS011;63501;55.570;37.488;2023-04-25T10:32:51;4.40;;;1.90;;
74935;SDS011;63501;55.570;37.488;2023-04-25T10:35:24;3.30;;;2.00;;
74935;SDS011;63501;55.570;37.488;2023-04-25T10:38:03;2.10;;;1.75;;
74935;SDS011;63501;55.570;37.488;2023-04-25T10:40:33;6.30;;;2.10;;
74935;SDS011;63501;55.570;37.488;2023-04-25T10:46:12;3.38;;;1.83;;
74935;SDS011;63501;55.570;37.488;2023-04-25T10:48:47;3.83;;;1.95;;
74935;SDS011;63501;55.570;37.488;2023-04-25T10:51:17;8.35;;;4.57;;
74935;SDS011;63501;55.570;37.488;2023-04-25T10:53:46;3.53;;;1.80;;
74935;SDS011;63501;55.570;37.488;2023-04-25T10:56:19;3.35;;;1.83;;
74935;SDS011;63501;55.570;37.488;2023-04-25T10:58:47;3.00;;;1.80;;
74935;SDS011;63501;55.570;37.488;2023-04-25T11:01:19;2.78;;;1.60;;
74935;SDS011;63501;55.570;37.488;2023-04-25T11:03:49;5.72;;;2.03;;
74935;SDS011;63501;55.570;37.488;2023-04-25T11:06:26;5.90;;;1.92;;
74935;SDS011;63501;55.570;37.488;2023-04-25T11:09:00;2.85;;;1.60;;
74935;SDS011;63501;55.570;37.488;2023-04-25T11:11:30;3.13;;;1.73;;
74935;SDS011;63501;55.570;37.488;2023-04-25T11:13:59;2.13;;;1.58;;
74935;SDS011;63501;55.570;37.488;2023-04-25T11:16:32;5.80;;;1.75;;
74935;SDS011;63501;55.570;37.488;2023-04-25T11:19:01;3.90;;;1.85;;
74935;SDS011;63501;55.570;37.488;2023-04-25T11:21:29;2.33;;;1.48;;
74935;SDS011;63501;55.570;37.488;2023-04-25T11:23:58;2.80;;;1.55;;
74935;SDS011;63501;55.570;37.488;2023-04-25T11:26:30;4.22;;;2.00;;
74935;SDS011;63501;55.570;37.488;2023-04-25T11:28:59;3.50;;;1.52;;
74935;SDS011;63501;55.570;37.488;2023-04-25T11:31:37;2.45;;;1.58;;
74935;SDS011;63501;55.570;37.488;2023-04-25T11:34:09;3.60;;;1.60;;
74935;SDS011;63501;55.570;37.488;2023-04-25T11:39:15;1.75;;;1.50;;
74935;SDS011;63501;55.570;37.488;2023-04-25T11:41:49;3.60;;;1.70;;
74935;SDS011;63501;55.570;37.488;2023-04-25T11:44:16;3.03;;;1.58;;
74935;SDS011;63501;55.570;37.488;2023-04-25T11:46:52;1.30;;;1.20;;
74935;SDS011;63501;55.570;37.488;2023-04-25T11:49:22;1.95;;;1.50;;
74935;SDS011;63501;55.570;37.488;2023-04-25T11:52:02;7.35;;;1.77;;
74935;SDS011;63501;55.570;37.488;2023-04-25T11:54:34;4.43;;;1.80;;
74935;SDS011;63501;55.570;37.488;2023-04-25T11:57:09;3.80;;;2.00;;
74935;SDS011;63501;55.570;37.488;2023-04-25T11:59:47;2.13;;;1.60;;
74935;SDS011;63501;55.570;37.488;2023-04-25T12:04:58;4.40;;;1.92;;
74935;SDS011;63501;55.570;37.488;2023-04-25T12:07:28;2.58;;;1.75;;
74935;SDS011;63501;55.570;37.488;2023-04-25T12:09:56;4.97;;;2.45;;
74935;SDS011;63501;55.570;37.488;2023-04-25T12:15:08;6.53;;;2.97;;
74935;SDS011;63501;55.570;37.488;2023-04-25T12:18:19;3.20;;;1.75;;
74935;SDS011;63501;55.570;37.488;2023-04-25T12:20:51;1.80;;;1.52;;
74935;SDS011;63501;55.570;37.488;2023-04-25T12:23:24;2.08;;;1.60;;
74935;SDS011;63501;55.570;37.488;2023-04-25T12:25:58;4.25;;;1.83;;
74935;SDS011;63501;55.570;37.488;2023-04-25T12:28:31;5.53;;;1.75;;
74935;SDS011;63501;55.570;37.488;2023-04-25T12:31:01;4.22;;;2.00;;
74935;SDS011;63501;55.570;37.488;2023-04-25T12:33:42;4.38;;;1.80;;
74935;SDS011;63501;55.570;37.488;2023-04-25T12:36:13;5.25;;;1.77;;
74935;SDS011;63501;55.570;37.488;2023-04-25T12:38:42;4.05;;;1.52;;
74935;SDS011;63501;55.570;37.488;2023-04-25T12:41:32;2.70;;;1.85;;
74935;SDS011;63501;55.570;37.488;2023-04-25T12:44:10;3.03;;;1.55;;
74935;SDS011;63501;55.570;37.488;2023-04-25T12:46:40;4.55;;;1.70;;
74935;SDS011;63501;55.570;37.488;2023-04-25T12:49:12;6.85;;;1.40;;
74935;SDS011;63501;55.570;37.488;2023-04-25T12:51:49;3.80;;;1.30;;
74935;SDS011;63501;55.570;37.488;2023-04-25T12:54:24;3.47;;;1.67;;
74935;SDS011;63501;55.570;37.488;2023-04-25T12:56:56;2.85;;;1.63;;
74935;SDS011;63501;55.570;37.488;2023-04-25T12:59:27;4.30;;;1.65;;
74935;SDS011;63501;55.570;37.488;2023-04-25T13:01:55;2.85;;;1.73;;
74935;SDS011;63501;55.570;37.488;2023-04-25T13:04:25;3.72;;;1.67;;
74935;SDS011;63501;55.570;37.488;2023-04-25T13:07:07;5.68;;;2.03;;
74935;SDS011;63501;55.570;37.488;2023-04-25T13:09:34;4.60;;;2.10;;
74935;SDS011;63501;55.570;37.488;2023-04-25T13:12:04;3.53;;;1.88;;
74935;SDS011;63501;55.570;37.488;2023-04-25T13:14:35;7.30;;;1.77;;
74935;SDS011;63501;55.570;37.488;2023-04-25T13:17:02;3.85;;;2.08;;
74935;SDS011;63501;55.570;37.488;2023-04-25T13:19:29;2.13;;;1.63;;
74935;SDS011;63501;55.570;37.488;2023-04-25T13:21:57;4.72;;;1.70;;
74935;SDS011;63501;55.570;37.488;2023-04-25T13:24:26;6.63;;;1.92;;
74935;SDS011;63501;55.570;37.488;2023-04-25T13:26:53;6.72;;;1.95;;
74935;SDS011;63501;55.570;37.488;2023-04-25T13:29:20;5.40;;;2.78;;
74935;SDS011;63501;55.570;37.488;2023-04-25T13:31:48;5.07;;;1.75;;
74935;SDS011;63501;55.570;37.488;2023-04-25T13:34:17;6.03;;;2.08;;
74935;SDS011;63501;55.570;37.488;2023-04-25T13:36:46;3.15;;;1.83;;
74935;SDS011;63501;55.570;37.488;2023-04-25T13:39:25;3.22;;;1.90;;
74935;SDS011;63501;55.570;37.488;2023-04-25T13:41:54;10.15;;;2.28;;
74935;SDS011;63501;55.570;37.488;2023-04-25T13:44:22;3.88;;;1.95;;
74935;SDS011;63501;55.570;37.488;2023-04-25T13:46:51;4.47;;;2.15;;
74935;SDS011;63501;55.570;37.488;2023-04-25T13:49:18;3.33;;;2.22;;
74935;SDS011;63501;55.570;37.488;2023-04-25T13:51:47;7.88;;;2.10;;
74935;SDS011;63501;55.570;37.488;2023-04-25T13:54:15;2.50;;;1.65;;
74935;SDS011;63501;55.570;37.488;2023-04-25T13:59:08;2.17;;;1.98;;
74935;SDS011;63501;55.570;37.488;2023-04-25T14:01:39;3.40;;;2.00;;
74935;SDS011;63501;55.570;37.488;2023-04-25T14:04:33;3.10;;;2.20;;
74935;SDS011;63501;55.570;37.488;2023-04-25T14:07:04;2.95;;;1.83;;
74935;SDS011;63501;55.570;37.488;2023-04-25T14:09:31;5.57;;;2.40;;
74935;SDS011;63501;55.570;37.488;2023-04-25T14:11:59;3.92;;;1.92;;
74935;SDS011;63501;55.570;37.488;2023-04-25T14:14:27;5.57;;;2.08;;
74935;SDS011;63501;55.570;37.488;2023-04-25T14:17:09;5.78;;;2.55;;
74935;SDS011;63501;55.570;37.488;2023-04-25T14:19:53;4.10;;;2.10;;
74935;SDS011;63501;55.570;37.488;2023-04-25T14:24:31;8.35;;;1.95;;
74935;SDS011;63501;55.570;37.488;2023-04-25T14:25:52;4.43;;;1.73;;
74935;SDS011;63501;55.570;37.488;2023-04-25T14:28:19;5.22;;;1.80;;
74935;SDS011;63501;55.570;37.488;2023-04-25T14:30:48;2.95;;;1.60;;
74935;SDS011;63501;55.570;37.488;2023-04-25T14:33:17;4.82;;;1.98;;
74935;SDS011;63501;55.570;37.488;2023-04-25T14:38:23;3.55;;;2.00;;
74935;SDS011;63501;55.570;37.488;2023-04-25T14:41:10;5.65;;;1.92;;
74935;SDS011;63501;55.570;37.488;2023-04-25T14:43:38;7.65;;;2.00;;
74935;SDS011;63501;55.570;37.488;2023-04-25T14:46:07;3.47;;;1.92;;
74935;SDS011;63501;55.570;37.488;2023-04-25T14:48:36;4.90;;;2.00;;
74935;SDS011;63501;55.570;37.488;2023-04-25T14:51:09;5.38;;;2.00;;
74935;SDS011;63501;55.570;37.488;2023-04-25T14:53:39;5.90;;;2.08;;
74935;SDS011;63501;55.570;37.488;2023-04-25T14:56:12;3.35;;;2.30;;
74935;SDS011;63501;55.570;37.488;2023-04-25T14:58:41;3.25;;;1.83;;
74935;SDS011;63501;55.570;37.488;2023-04-25T15:01:08;2.33;;;1.80;;
74935;SDS011;63501;55.570;37.488;2023-04-25T15:03:36;3.65;;;2.10;;
74935;SDS011;63501;55.570;37.488;2023-04-25T15:06:05;3.58;;;1.98;;
74935;SDS011;63501;55.570;37.488;2023-04-25T15:08:36;2.92;;;1.90;;
74935;SDS011;63501;55.570;37.488;2023-04-25T15:11:12;3.70;;;2.00;;
74935;SDS011;63501;55.570;37.488;2023-04-25T15:13:40;4.95;;;2.20;;
74935;SDS011;63501;55.570;37.488;2023-04-25T15:16:08;4.88;;;2.00;;
74935;SDS011;63501;55.570;37.488;2023-04-25T15:18:36;4.47;;;2.47;;
74935;SDS011;63501;55.570;37.488;2023-04-25T15:21:03;2.88;;;2.30;;